Time;durP1;ratioP1;P1;durP2;ratioP2;P2;SDS_P1;SDS_P2;PMS_P1;PMS_P2;Temp;Humidity;BMP_temperature;BMP_pressure;BME280_temperature;BME280_humidity;BME280_pressure;Samples;Min_cycle;Max_cycle;Signal;HPM_P1;HPM_P2
2021/06/16 00:01:59;;;;;;;9.25;2.85;;;;;;;12.36;71.77;101592.66;5071141;28;20024;-72
2021/06/16 00:04:24;;;;;;;10.68;3.50;;;;;;;12.34;71.86;101598.38;5073103;28;20078;-73
2021/06/16 00:06:51;;;;;;;13.40;4.07;;;;;;;12.34;72.03;101612.06;5073343;28;20040;-73
2021/06/16 00:09:16;;;;;;;16.88;3.83;;;;;;;12.38;72.03;101602.22;5046867;28;20025;-72
2021/06/16 00:11:42;;;;;;;7.78;2.92;;;;;;;12.40;72.34;101605.53;5056456;28;20032;-73
2021/06/16 00:14:08;;;;;;;10.43;3.47;;;;;;;12.42;72.68;101613.47;5058038;28;20020;-73
2021/06/16 00:16:33;;;;;;;9.57;3.15;;;;;;;12.41;73.27;101612.66;5070466;28;20032;-72
2021/06/16 00:18:59;;;;;;;10.50;3.53;;;;;;;12.42;73.06;101614.28;5067971;28;20025;-72
2021/06/16 00:21:24;;;;;;;8.07;2.83;;;;;;;12.44;73.08;101595.72;5067052;28;20024;-72
2021/06/16 00:23:50;;;;;;;10.73;3.72;;;;;;;12.46;73.32;101600.09;5067904;28;20025;-74
2021/06/16 00:26:15;;;;;;;8.73;4.20;;;;;;;12.42;73.54;101603.34;5071508;28;20032;-73
2021/06/16 00:28:42;;;;;;;10.52;3.17;;;;;;;12.40;73.65;101605.53;5054785;28;20024;-73
2021/06/16 00:31:08;;;;;;;14.30;3.63;;;;;;;12.40;73.52;101611.00;5058499;28;20432;-73
2021/06/16 00:33:33;;;;;;;10.80;3.67;;;;;;;12.42;73.45;101608.81;5086414;28;20064;-73
2021/06/16 00:35:59;;;;;;;9.27;3.22;;;;;;;12.41;73.52;101599.00;5054439;28;20105;-73
2021/06/16 00:38:26;;;;;;;8.07;3.90;;;;;;;12.41;73.98;101615.41;5055942;28;20071;-73
2021/06/16 00:40:52;;;;;;;9.52;3.17;;;;;;;12.40;73.89;101600.06;5070737;28;20036;-73
2021/06/16 00:43:17;;;;;;;8.10;3.53;;;;;;;12.39;73.89;101609.38;5055443;28;20064;-73
2021/06/16 00:45:43;;;;;;;13.65;3.38;;;;;;;12.37;73.90;101607.97;5073725;28;20016;-74
2021/06/16 00:48:08;;;;;;;9.05;3.17;;;;;;;12.34;74.25;101620.28;5081753;28;20025;-72
2021/06/16 00:50:36;;;;;;;11.52;4.03;;;;;;;12.32;74.20;101599.75;5054762;28;20028;-73
2021/06/16 00:53:01;;;;;;;9.35;3.42;;;;;;;12.28;74.42;101613.13;5071744;28;20036;-73
2021/06/16 00:55:27;;;;;;;15.88;3.53;;;;;;;12.23;74.43;101604.09;5055123;28;20029;-74
2021/06/16 00:57:52;;;;;;;13.40;3.50;;;;;;;12.22;74.77;101603.22;5071545;28;20044;-73
2021/06/16 01:00:23;;;;;;;16.10;3.42;;;;;;;12.20;74.71;101605.44;5052269;28;20086;-73
2021/06/16 01:03:12;;;;;;;13.43;3.80;;;;;;;12.18;74.80;101613.06;5055404;28;20108;-73
2021/06/16 01:05:40;;;;;;;13.63;3.83;;;;;;;12.17;74.90;101611.44;5060424;28;21535;-72
2021/06/16 01:08:06;;;;;;;9.63;3.28;;;;;;;12.15;74.79;101608.94;5043716;28;20029;-73
2021/06/16 01:10:34;;;;;;;11.23;3.70;;;;;;;12.15;75.00;101602.66;5055281;28;20085;-72
2021/06/16 01:13:07;;;;;;;12.88;3.55;;;;;;;12.14;74.91;101601.00;5054947;28;20577;-71
2021/06/16 01:15:57;;;;;;;10.38;4.00;;;;;;;12.13;74.99;101593.91;5050846;28;20108;-73
2021/06/16 01:18:23;;;;;;;10.60;3.15;;;;;;;12.12;74.57;101601.28;5074898;28;20025;-72
2021/06/16 01:20:52;;;;;;;11.00;3.85;;;;;;;12.10;75.16;101587.03;5060570;28;20047;-72
2021/06/16 01:23:59;;;;;;;14.65;3.75;;;;;;;12.08;75.39;101591.13;5058663;28;20055;-72
2021/06/16 01:26:43;;;;;;;12.32;4.25;;;;;;;12.08;75.40;101575.53;5077309;28;20032;-73
2021/06/16 01:29:22;;;;;;;12.90;3.65;;;;;;;12.06;75.57;101596.03;5058784;28;20520;-73
2021/06/16 01:31:48;;;;;;;11.35;3.90;;;;;;;12.03;75.32;101588.38;5077464;28;20031;-72
2021/06/16 01:34:14;;;;;;;5.72;2.75;;;;;;;12.02;75.34;101590.28;5077473;28;20035;-73
2021/06/16 01:36:41;;;;;;;14.70;4.28;;;;;;;11.99;75.33;101586.16;5074061;28;20028;-73
2021/06/16 01:39:10;;;;;;;12.30;3.90;;;;;;;12.01;75.65;101593.28;5074576;28;20037;-73
2021/06/16 01:41:36;;;;;;;9.52;3.45;;;;;;;12.01;75.76;101591.38;5087910;28;20096;-73
2021/06/16 01:44:02;;;;;;;10.02;3.38;;;;;;;12.00;75.71;101578.78;5075689;28;20020;-72
2021/06/16 01:46:27;;;;;;;16.40;3.58;;;;;;;12.02;76.21;101586.72;5074807;28;20539;-73
2021/06/16 01:48:53;;;;;;;14.27;3.33;;;;;;;12.04;75.79;101587.28;5075577;28;20025;-73
2021/06/16 01:51:19;;;;;;;8.65;2.83;;;;;;;12.06;75.95;101585.94;5076347;28;20031;-73
2021/06/16 01:53:44;;;;;;;10.80;3.85;;;;;;;12.10;76.25;101578.03;5069511;28;20017;-73
2021/06/16 01:56:10;;;;;;;12.20;3.50;;;;;;;12.12;76.14;101581.31;5051994;28;20572;-73
2021/06/16 01:58:35;;;;;;;7.60;2.85;;;;;;;12.09;76.32;101576.41;5058068;28;20385;-72
2021/06/16 02:01:01;;;;;;;8.77;3.47;;;;;;;12.07;76.50;101582.13;5074920;28;20095;-73
2021/06/16 02:03:27;;;;;;;10.98;3.28;;;;;;;12.08;76.60;101574.72;5072888;28;20444;-73
2021/06/16 02:05:52;;;;;;;11.82;3.80;;;;;;;12.05;76.73;101564.34;5074084;28;20059;-73
2021/06/16 02:08:20;;;;;;;10.60;3.03;;;;;;;11.99;76.63;101564.28;5079562;28;20024;-73
2021/06/16 02:10:47;;;;;;;6.75;2.78;;;;;;;11.98;76.67;101578.25;5075024;28;20024;-73
2021/06/16 02:13:13;;;;;;;10.27;3.08;;;;;;;11.96;76.84;101573.03;5069248;28;20016;-73
2021/06/16 02:15:53;;;;;;;11.95;3.70;;;;;;;11.97;76.87;101577.41;5068338;28;20566;-73
2021/06/16 02:18:18;;;;;;;11.65;2.95;;;;;;;11.97;76.72;101591.06;5074518;28;20033;-73
2021/06/16 02:20:44;;;;;;;11.95;3.60;;;;;;;12.00;76.82;101581.50;5053493;28;20017;-73
2021/06/16 02:23:09;;;;;;;7.88;2.92;;;;;;;12.02;77.16;101582.06;5056529;28;20017;-72
2021/06/16 02:25:35;;;;;;;11.40;3.45;;;;;;;12.03;77.07;101581.00;5057360;28;20036;-73
2021/06/16 02:28:00;;;;;;;6.82;2.88;;;;;;;12.04;76.96;101574.44;5057159;28;20020;-73
2021/06/16 02:30:26;;;;;;;19.05;3.78;;;;;;;12.02;76.85;101581.25;5074060;28;20028;-73
2021/06/16 02:32:51;;;;;;;11.30;3.65;;;;;;;12.02;76.99;101581.25;5086973;28;20024;-73
2021/06/16 02:35:17;;;;;;;10.88;2.63;;;;;;;12.01;77.06;101585.09;5076294;28;20028;-73
2021/06/16 02:37:46;;;;;;;19.92;3.90;;;;;;;12.04;77.38;101587.28;5057366;28;20101;-73
2021/06/16 02:40:13;;;;;;;7.90;3.53;;;;;;;12.04;77.37;101595.50;5073769;28;20020;-73
2021/06/16 02:42:42;;;;;;;13.63;3.40;;;;;;;12.04;77.33;101588.13;5041014;28;20351;-72
2021/06/16 02:45:09;;;;;;;9.73;3.17;;;;;;;12.06;77.32;101585.09;5071742;28;20020;-73
2021/06/16 02:47:37;;;;;;;8.32;3.53;;;;;;;12.08;77.30;101597.41;5074040;28;20059;-73
2021/06/16 02:50:03;;;;;;;16.83;3.22;;;;;;;12.11;77.48;101591.44;5037225;28;20017;-73
2021/06/16 02:52:29;;;;;;;14.55;2.40;;;;;;;12.12;77.35;101595.81;5074041;28;20085;-73
2021/06/16 02:54:59;;;;;;;5.57;2.45;;;;;;;12.15;77.59;101608.13;5079252;28;20085;-73
2021/06/16 02:57:25;;;;;;;9.77;2.92;;;;;;;12.18;77.52;101607.59;5042036;28;20375;-73
2021/06/16 02:59:51;;;;;;;11.07;2.97;;;;;;;12.19;77.43;101610.09;5063475;28;20466;-73
2021/06/16 03:02:23;;;;;;;12.35;2.83;;;;;;;12.23;77.54;101604.91;5067356;28;20105;-72
2021/06/16 03:04:49;;;;;;;10.57;2.95;;;;;;;12.28;77.41;101615.88;5047049;28;20037;-73
2021/06/16 03:07:14;;;;;;;9.93;2.67;;;;;;;12.31;77.48;101617.25;5056601;28;20025;-72
2021/06/16 03:09:40;;;;;;;7.97;2.78;;;;;;;12.34;77.30;101614.81;5056705;28;20094;-72
2021/06/16 03:12:07;;;;;;;9.68;2.85;;;;;;;12.39;77.17;101625.78;5056251;28;20016;-73
2021/06/16 03:14:32;;;;;;;13.43;2.85;;;;;;;12.41;77.17;101618.13;5056488;28;20078;-73
2021/06/16 03:16:58;;;;;;;15.10;3.40;;;;;;;12.42;77.09;101621.69;5056453;28;20033;-72
2021/06/16 03:19:23;;;;;;;13.80;2.53;;;;;;;12.43;77.15;101626.06;5055889;28;20040;-73
2021/06/16 03:21:49;;;;;;;17.65;3.13;;;;;;;12.46;76.89;101630.16;5074072;28;20371;-73
2021/06/16 03:24:16;;;;;;;8.30;3.28;;;;;;;12.48;76.99;101634.28;5074598;28;20029;-72
2021/06/16 03:26:42;;;;;;;8.60;2.90;;;;;;;12.49;76.94;101624.16;5070144;28;20032;-73
2021/06/16 03:29:08;;;;;;;14.75;3.70;;;;;;;12.50;76.98;101628.56;5072695;28;20032;-72
2021/06/16 03:31:33;;;;;;;15.25;2.80;;;;;;;12.52;76.85;101623.63;5055986;28;20034;-72
2021/06/16 03:33:59;;;;;;;6.03;2.75;;;;;;;12.51;76.84;101613.78;5063325;28;20498;-72
2021/06/16 03:36:24;;;;;;;13.65;3.08;;;;;;;12.52;76.90;101610.81;5057076;28;20474;-72
2021/06/16 03:38:50;;;;;;;8.95;3.03;;;;;;;12.52;76.78;101607.22;5054972;28;20044;-73
2021/06/16 03:41:15;;;;;;;9.27;2.55;;;;;;;12.51;76.83;101622.00;5056055;28;20478;-74
2021/06/16 03:43:41;;;;;;;10.85;2.80;;;;;;;12.55;77.04;101629.41;5072204;28;20028;-73
2021/06/16 03:46:07;;;;;;;6.15;2.75;;;;;;;12.56;76.88;101631.03;5071361;28;20025;-73
2021/06/16 03:48:33;;;;;;;14.45;3.05;;;;;;;12.58;76.75;101633.53;5073150;28;20031;-74
2021/06/16 03:50:58;;;;;;;8.60;2.47;;;;;;;12.59;76.80;101640.63;5056151;28;20021;-73
2021/06/16 03:53:24;;;;;;;13.10;2.75;;;;;;;12.61;76.58;101635.72;5072237;28;20025;-73
2021/06/16 03:55:49;;;;;;;11.15;3.22;;;;;;;12.62;76.51;101638.19;5073410;28;20029;-73
2021/06/16 03:58:15;;;;;;;11.68;3.22;;;;;;;12.65;76.54;101634.09;5062677;28;20060;-73
2021/06/16 04:00:41;;;;;;;10.48;2.28;;;;;;;12.69;76.56;101642.59;5039687;28;20046;-73
2021/06/16 04:03:06;;;;;;;10.43;2.60;;;;;;;12.71;76.58;101649.44;5073900;28;20025;-72
2021/06/16 04:05:32;;;;;;;9.30;2.83;;;;;;;12.77;76.55;101637.44;5059642;28;20043;-73
2021/06/16 04:07:57;;;;;;;10.57;2.95;;;;;;;12.78;76.22;101639.06;5055816;28;20031;-73
2021/06/16 04:10:23;;;;;;;7.00;3.60;;;;;;;12.81;76.36;101641.28;5071694;28;20029;-74
2021/06/16 04:12:49;;;;;;;8.15;2.58;;;;;;;12.79;76.06;101640.72;5071839;28;20031;-73
2021/06/16 04:15:17;;;;;;;11.77;2.80;;;;;;;12.76;76.26;101652.19;5055012;28;20082;-74
2021/06/16 04:17:44;;;;;;;11.18;2.72;;;;;;;12.77;76.36;101653.84;5038407;28;20243;-74
2021/06/16 04:20:10;;;;;;;11.82;2.38;;;;;;;12.78;76.18;101663.69;5055378;28;20547;-72
2021/06/16 04:22:36;;;;;;;14.50;4.05;;;;;;;12.76;76.42;101654.09;5072879;28;20107;-73
2021/06/16 04:25:02;;;;;;;11.63;2.83;;;;;;;12.79;76.24;101654.38;5083597;28;20028;-72
2021/06/16 04:27:28;;;;;;;9.32;2.90;;;;;;;12.85;76.08;101656.06;5072899;28;20031;-72
2021/06/16 04:29:53;;;;;;;9.10;2.53;;;;;;;12.88;76.05;101647.31;5072655;28;20036;-72
2021/06/16 04:32:19;;;;;;;6.95;2.00;;;;;;;12.92;76.00;101663.22;5072166;28;20439;-74
2021/06/16 04:34:44;;;;;;;5.50;2.42;;;;;;;12.94;75.98;101658.28;5058956;28;20115;-72
2021/06/16 04:37:10;;;;;;;8.77;2.10;;;;;;;12.96;75.77;101662.41;5066836;28;20044;-74
2021/06/16 04:39:35;;;;;;;6.93;2.53;;;;;;;12.95;75.91;101657.19;5068023;28;20021;-72
2021/06/16 04:42:01;;;;;;;12.57;3.00;;;;;;;12.97;75.86;101657.75;5054719;28;20485;-70
2021/06/16 04:44:27;;;;;;;11.20;2.55;;;;;;;12.98;76.07;101665.69;5072478;28;20032;-72
2021/06/16 04:46:52;;;;;;;12.90;2.55;;;;;;;12.98;75.82;101659.38;5071761;28;20074;-73
2021/06/16 04:49:18;;;;;;;7.18;2.28;;;;;;;13.00;76.08;101665.44;5075207;28;20024;-72
2021/06/16 04:51:43;;;;;;;12.35;3.08;;;;;;;13.03;75.93;101671.19;5054439;28;20020;-72
2021/06/16 04:54:11;;;;;;;9.48;2.88;;;;;;;13.05;75.96;101670.94;5054889;28;20082;-72
2021/06/16 04:56:38;;;;;;;9.35;1.90;;;;;;;13.04;75.96;101672.00;5072186;28;20013;-72
2021/06/16 04:59:03;;;;;;;12.77;2.72;;;;;;;13.07;75.89;101677.78;5072541;28;20089;-72
2021/06/16 05:01:29;;;;;;;10.13;2.65;;;;;;;13.08;75.88;101673.13;5055141;28;20444;-72
2021/06/16 05:03:54;;;;;;;8.38;2.25;;;;;;;13.13;75.97;101675.88;5071605;28;20025;-72
2021/06/16 05:06:19;;;;;;;14.45;2.08;;;;;;;13.16;75.83;101664.38;5055015;28;20398;-72
2021/06/16 05:08:45;;;;;;;7.30;1.90;;;;;;;13.22;75.94;101677.00;5072519;28;20028;-72
2021/06/16 05:11:10;;;;;;;8.00;2.15;;;;;;;13.21;75.54;101660.84;5072545;28;20473;-73
2021/06/16 05:13:36;;;;;;;8.88;2.10;;;;;;;13.20;75.58;101667.41;5054529;28;20016;-72
2021/06/16 05:16:01;;;;;;;15.73;2.83;;;;;;;13.18;75.61;101675.91;5073837;28;20024;-72
2021/06/16 05:18:27;;;;;;;8.85;2.42;;;;;;;13.18;75.72;101670.41;5068166;28;20024;-73
2021/06/16 05:20:53;;;;;;;12.20;2.60;;;;;;;13.21;75.53;101680.84;5071530;28;20016;-73
2021/06/16 05:23:18;;;;;;;14.00;2.83;;;;;;;13.24;75.77;101683.03;5053085;28;20086;-71
2021/06/16 05:25:46;;;;;;;8.00;2.30;;;;;;;13.26;75.62;101683.63;5071306;28;20488;-72
2021/06/16 05:28:12;;;;;;;11.57;2.80;;;;;;;13.31;75.45;101689.13;5071024;28;20025;-72
2021/06/16 05:30:37;;;;;;;7.55;2.25;;;;;;;13.30;75.38;101683.91;5051294;28;20025;-72
2021/06/16 05:33:03;;;;;;;4.43;1.83;;;;;;;13.36;75.40;101682.81;5062542;28;20055;-72
2021/06/16 05:35:29;;;;;;;7.20;2.15;;;;;;;13.37;75.25;101678.16;5058021;28;20039;-72
2021/06/16 05:37:55;;;;;;;7.95;2.30;;;;;;;13.38;75.31;101682.53;5067973;28;20041;-72
2021/06/16 05:40:20;;;;;;;4.63;1.42;;;;;;;13.42;75.31;101670.78;5072229;28;20028;-73
2021/06/16 05:42:45;;;;;;;11.18;2.25;;;;;;;13.45;75.26;101672.97;5071010;28;20017;-72
2021/06/16 05:45:11;;;;;;;7.25;1.90;;;;;;;13.51;75.31;101673.81;5071028;28;20028;-72
2021/06/16 05:47:37;;;;;;;12.52;2.60;;;;;;;13.54;75.14;101682.28;5064239;28;20445;-72
2021/06/16 05:50:03;;;;;;;10.60;2.38;;;;;;;13.57;74.93;101686.41;5064877;28;20074;-72
2021/06/16 05:52:28;;;;;;;8.43;1.83;;;;;;;13.59;75.02;101688.91;5076467;28;20025;-72
2021/06/16 05:54:54;;;;;;;10.60;2.05;;;;;;;13.59;74.98;101676.00;5071046;28;20028;-74
2021/06/16 05:57:19;;;;;;;9.65;1.48;;;;;;;13.70;74.93;101683.16;5036908;28;20044;-72
2021/06/16 05:59:45;;;;;;;9.18;2.17;;;;;;;13.74;74.64;101686.97;5070999;28;20029;-72
2021/06/16 06:02:10;;;;;;;9.73;2.25;;;;;;;13.72;74.75;101685.59;5069913;28;20070;-72
2021/06/16 06:04:36;;;;;;;7.82;1.98;;;;;;;13.74;74.72;101683.41;5064335;28;20032;-73
2021/06/16 06:07:03;;;;;;;8.90;1.98;;;;;;;13.82;74.44;101684.78;5067455;28;20028;-72
2021/06/16 06:09:28;;;;;;;5.35;1.85;;;;;;;13.87;74.61;101682.06;5073146;28;20086;-73
2021/06/16 06:11:54;;;;;;;9.25;2.03;;;;;;;13.90;74.56;101687.81;5074287;28;20474;-73
2021/06/16 06:14:19;;;;;;;7.35;1.60;;;;;;;14.00;74.38;101695.22;5073641;28;20037;-73
2021/06/16 06:16:45;;;;;;;10.73;2.22;;;;;;;13.99;74.66;101691.66;5054586;28;20478;-72
2021/06/16 06:19:10;;;;;;;11.48;2.38;;;;;;;14.03;74.24;101689.19;5070213;28;20024;-72
2021/06/16 06:21:36;;;;;;;10.40;2.38;;;;;;;14.00;74.30;101687.00;5069167;28;20036;-73
2021/06/16 06:24:02;;;;;;;9.35;2.20;;;;;;;13.99;74.41;101690.81;5073990;28;20032;-72
2021/06/16 06:26:27;;;;;;;4.05;1.67;;;;;;;13.94;73.98;101699.03;5080281;28;20024;-72
2021/06/16 06:28:54;;;;;;;8.50;1.75;;;;;;;13.88;74.15;101700.13;5075317;28;20031;-73
2021/06/16 06:31:19;;;;;;;10.70;2.50;;;;;;;13.96;74.31;101692.19;5075516;28;20486;-73
2021/06/16 06:33:45;;;;;;;6.68;1.80;;;;;;;14.05;74.06;101697.97;5055553;28;20024;-73
2021/06/16 06:36:10;;;;;;;11.10;2.00;;;;;;;14.01;74.12;101699.59;5066896;28;20024;-73
2021/06/16 06:38:36;;;;;;;10.00;2.25;;;;;;;13.99;74.00;101701.78;5073415;28;20110;-73
2021/06/16 06:41:01;;;;;;;9.10;1.85;;;;;;;14.05;74.12;101706.19;5049624;28;20016;-73
2021/06/16 06:43:26;;;;;;;6.10;1.98;;;;;;;14.22;73.96;101716.88;5080198;28;20082;-73
2021/06/16 06:45:52;;;;;;;5.90;1.50;;;;;;;14.36;73.64;101725.34;5078686;28;20020;-73
2021/06/16 06:48:17;;;;;;;6.18;1.60;;;;;;;14.32;73.45;101721.50;5088312;28;20070;-73
2021/06/16 06:50:44;;;;;;;10.57;1.55;;;;;;;14.30;73.23;101707.28;5074589;28;20342;-72
2021/06/16 06:53:09;;;;;;;7.40;1.90;;;;;;;14.37;73.06;101718.75;5074815;28;20737;-73
2021/06/16 06:55:35;;;;;;;5.90;1.67;;;;;;;14.40;72.95;101718.22;5065606;28;20024;-72
2021/06/16 06:58:00;;;;;;;5.63;1.63;;;;;;;14.46;73.02;101716.28;5066407;28;20025;-73
2021/06/16 07:00:26;;;;;;;8.85;1.95;;;;;;;14.50;72.56;101718.19;5081382;28;20017;-72
2021/06/16 07:02:51;;;;;;;5.45;1.83;;;;;;;14.42;72.60;101719.56;5078065;28;20023;-73
2021/06/16 07:05:17;;;;;;;6.95;2.22;;;;;;;14.47;72.51;101713.25;5074398;28;20078;-73
2021/06/16 07:07:42;;;;;;;5.95;1.80;;;;;;;14.60;72.43;101711.91;5074440;28;20020;-72
2021/06/16 07:10:08;;;;;;;8.73;2.00;;;;;;;14.59;72.18;101710.25;5054982;28;20394;-73
2021/06/16 07:12:34;;;;;;;12.20;2.08;;;;;;;14.51;72.35;101708.03;5078451;28;20116;-73
2021/06/16 07:14:59;;;;;;;5.22;1.48;;;;;;;14.55;72.20;101703.69;5054873;28;20035;-73
2021/06/16 07:17:25;;;;;;;8.80;1.95;;;;;;;14.55;72.21;101696.25;5062651;28;20029;-73
2021/06/16 07:19:52;;;;;;;9.57;2.08;;;;;;;14.60;72.16;101704.50;5078065;28;20401;-73
2021/06/16 07:22:17;;;;;;;9.48;2.83;;;;;;;14.63;72.03;101703.94;5077304;28;20393;-73
2021/06/16 07:24:44;;;;;;;8.30;2.10;;;;;;;14.68;71.99;101707.75;5074273;28;20031;-73
2021/06/16 07:27:10;;;;;;;6.85;1.80;;;;;;;14.67;71.67;101695.13;5056515;28;20024;-73
2021/06/16 07:29:36;;;;;;;5.55;2.58;;;;;;;14.73;71.91;101694.00;5073528;28;20044;-73
2021/06/16 07:32:01;;;;;;;6.57;1.50;;;;;;;14.77;71.70;101687.69;5070960;28;20417;-73
2021/06/16 07:34:28;;;;;;;6.53;2.03;;;;;;;14.88;71.90;101697.53;5056943;28;20028;-73
2021/06/16 07:36:54;;;;;;;3.95;2.08;;;;;;;14.90;71.53;101694.50;5072353;28;20109;-74
2021/06/16 07:39:20;;;;;;;8.77;1.83;;;;;;;14.90;71.13;101699.19;5073377;28;20509;-73
2021/06/16 07:41:45;;;;;;;6.85;2.20;;;;;;;14.89;71.17;101701.09;5070418;28;20378;-74
2021/06/16 07:44:11;;;;;;;9.25;2.40;;;;;;;14.96;71.10;101704.38;5072949;28;20024;-74
2021/06/16 07:46:36;;;;;;;7.90;2.75;;;;;;;14.93;70.82;101710.44;5039879;28;20070;-74
2021/06/16 07:49:02;;;;;;;7.97;1.73;;;;;;;14.90;70.69;101716.47;5074063;28;20462;-73
2021/06/16 07:51:27;;;;;;;8.57;2.03;;;;;;;14.96;70.97;101715.34;5068317;28;20398;-73
2021/06/16 07:53:52;;;;;;;7.03;1.80;;;;;;;14.86;70.99;101716.19;5071449;28;20028;-73
2021/06/16 07:56:18;;;;;;;7.80;2.90;;;;;;;14.97;70.91;101721.66;5073680;28;20025;-73
2021/06/16 07:58:43;;;;;;;7.47;2.10;;;;;;;14.99;70.58;101724.94;5075120;28;20032;-73
2021/06/16 08:01:09;;;;;;;6.18;2.63;;;;;;;15.00;70.49;101729.34;5055495;28;20016;-74
2021/06/16 08:03:34;;;;;;;6.80;1.55;;;;;;;14.96;70.29;101720.84;5071468;28;20020;-73
2021/06/16 08:06:00;;;;;;;8.65;2.95;;;;;;;14.95;70.43;101719.22;5039106;28;20028;-73
2021/06/16 08:08:26;;;;;;;6.45;2.20;;;;;;;14.97;70.35;101716.97;5056156;28;20028;-73
2021/06/16 08:10:51;;;;;;;4.75;1.77;;;;;;;15.05;70.27;101719.16;5086400;28;20028;-73
2021/06/16 08:13:17;;;;;;;5.55;2.10;;;;;;;15.06;70.22;101720.81;5071654;28;20029;-73
2021/06/16 08:15:43;;;;;;;11.27;2.08;;;;;;;15.14;70.24;101713.91;5071902;28;20033;-73
2021/06/16 08:18:09;;;;;;;5.75;2.45;;;;;;;15.20;69.70;101725.69;5049660;28;20055;-74
2021/06/16 08:20:35;;;;;;;13.10;2.78;;;;;;;15.14;69.62;101715.81;5073280;28;20040;-74
2021/06/16 08:23:01;;;;;;;7.53;2.17;;;;;;;15.04;69.63;101716.69;5071148;28;20028;-73
2021/06/16 08:25:26;;;;;;;8.10;1.98;;;;;;;14.99;69.40;101722.22;5073484;28;20055;-73
2021/06/16 08:27:52;;;;;;;7.18;1.95;;;;;;;15.03;69.68;101718.63;5075466;28;20346;-73
2021/06/16 08:30:18;;;;;;;6.68;2.40;;;;;;;15.10;69.43;101716.38;5062483;28;20020;-73
2021/06/16 08:32:44;;;;;;;8.32;1.88;;;;;;;15.22;69.16;101712.47;5085124;28;20032;-73
2021/06/16 08:35:10;;;;;;;8.68;3.10;;;;;;;15.31;68.95;101710.81;5057151;28;20031;-73
2021/06/16 08:37:37;;;;;;;3.85;1.92;;;;;;;15.41;68.70;101709.91;5066343;28;20052;-74
2021/06/16 08:40:03;;;;;;;4.63;1.40;;;;;;;15.48;68.24;101722.25;5074975;28;20058;-74
2021/06/16 08:42:28;;;;;;;3.30;1.30;;;;;;;15.43;67.81;101711.25;5065736;28;20028;-73
2021/06/16 08:44:55;;;;;;;4.55;1.95;;;;;;;15.38;67.78;101719.53;5055020;28;20040;-74
2021/06/16 08:47:21;;;;;;;4.47;1.50;;;;;;;15.52;67.87;101717.84;5048439;28;20033;-77
2021/06/16 08:49:48;;;;;;;8.65;2.22;;;;;;;15.56;67.72;101720.00;5073592;28;20016;-78
2021/06/16 08:52:14;;;;;;;5.63;1.90;;;;;;;15.62;67.57;101716.91;5069608;28;20029;-77
2021/06/16 08:54:40;;;;;;;6.95;1.60;;;;;;;15.64;67.01;101716.66;5071375;28;20039;-77
2021/06/16 08:57:05;;;;;;;9.10;1.77;;;;;;;15.62;67.23;101713.34;5058283;28;20325;-77
2021/06/16 08:59:31;;;;;;;9.35;2.30;;;;;;;15.66;67.47;101722.66;5058554;28;20044;-77
2021/06/16 09:01:56;;;;;;;3.78;1.63;;;;;;;15.60;67.48;101726.56;5071293;28;20024;-77
2021/06/16 09:04:44;;;;;;;7.57;2.25;;;;;;;15.67;67.59;101711.41;5054645;28;20493;-78
2021/06/16 09:07:17;;;;;;;6.18;1.92;;;;;;;15.80;67.42;101718.22;5076385;28;20029;-77
2021/06/16 09:09:42;;;;;;;;;;;;;;;15.81;67.19;101719.84;5072701;28;20020;-77
2021/06/16 09:12:09;;;;;;;3.85;1.40;;;;;;;15.84;67.11;101724.78;5053672;28;19924;-78
2021/06/16 09:14:34;;;;;;;6.20;1.92;;;;;;;15.89;67.03;101721.16;5072153;28;20021;-78
2021/06/16 09:17:03;;;;;;;11.15;1.95;;;;;;;15.87;66.45;101713.19;5072482;28;20031;-78
2021/06/16 09:19:31;;;;;;;6.03;2.10;;;;;;;15.94;66.39;101724.69;5070877;28;20436;-77
2021/06/16 09:22:04;;;;;;;5.75;2.08;;;;;;;15.80;66.69;101731.16;5069596;28;20017;-78
2021/06/16 09:24:46;;;;;;;7.70;2.00;;;;;;;15.84;66.79;101724.78;5054335;28;20428;-78
2021/06/16 09:27:41;;;;;;;9.13;1.73;;;;;;;16.02;66.66;101730.72;5077503;28;20028;-77
2021/06/16 09:30:27;;;;;;;6.40;2.03;;;;;;;16.02;66.02;101725.22;5070880;28;20031;-77
2021/06/16 09:33:03;;;;;;;7.97;2.13;;;;;;;15.95;65.97;101731.84;5072870;28;20468;-77
2021/06/16 09:35:31;;;;;;;8.32;2.33;;;;;;;16.02;65.89;101728.78;5076293;28;20146;-77
2021/06/16 09:37:58;;;;;;;8.77;2.25;;;;;;;16.15;65.78;101725.38;5079440;28;20116;-77
2021/06/16 09:40:44;;;;;;;10.50;2.92;;;;;;;16.38;65.84;101722.94;5054829;28;20016;-77
2021/06/16 09:43:13;;;;;;;6.28;2.33;;;;;;;16.56;65.35;101735.13;5064389;28;20032;-77
2021/06/16 09:45:41;;;;;;;9.48;2.22;;;;;;;16.66;64.86;101740.56;5053508;28;20025;-77
2021/06/16 09:48:32;;;;;;;5.45;1.63;;;;;;;16.60;64.09;101731.53;5073709;28;20092;-76
2021/06/16 09:51:09;;;;;;;6.43;2.35;;;;;;;16.51;63.87;101733.28;5060693;28;20048;-77
2021/06/16 09:54:11;;;;;;;6.07;2.95;;;;;;;16.48;63.74;101733.03;5076275;28;20078;-76
2021/06/16 09:56:36;;;;;;;7.30;2.22;;;;;;;16.56;64.05;101740.66;5071958;28;20097;-77
2021/06/16 09:59:02;;;;;;;5.38;2.33;;;;;;;16.62;63.81;101740.31;5075672;28;20533;-78
2021/06/16 10:01:47;;;;;;;8.23;2.38;;;;;;;16.62;63.58;101739.50;5063860;28;20032;-77
2021/06/16 10:04:43;;;;;;;4.55;2.33;;;;;;;16.72;63.50;101744.88;5075402;28;20043;-78
2021/06/16 10:07:16;;;;;;;10.45;2.28;;;;;;;16.80;63.30;101746.22;5075980;28;20056;-79
2021/06/16 10:09:51;;;;;;;;;;;;;;;16.80;63.13;101747.03;5075364;28;20029;-76
2021/06/16 10:12:17;;;;;;;7.13;2.20;;;;;;;16.82;63.33;101750.31;5076269;28;19968;-78
2021/06/16 10:14:42;;;;;;;10.40;2.10;;;;;;;16.83;62.85;101740.97;5075250;28;20072;-79
2021/06/16 10:17:08;;;;;;;3.63;1.50;;;;;;;16.88;62.87;101745.56;5058985;28;20485;-79
2021/06/16 10:19:36;;;;;;;5.95;2.25;;;;;;;16.93;62.27;101755.72;5077832;28;20017;-77
2021/06/16 10:22:02;;;;;;;5.18;1.73;;;;;;;17.08;62.22;101766.56;5075970;28;20016;-80
2021/06/16 10:24:28;;;;;;;9.23;2.38;;;;;;;17.15;61.69;101763.44;5075877;28;20052;-77
2021/06/16 10:26:58;;;;;;;5.85;1.60;;;;;;;17.16;61.11;101749.38;5089041;28;20037;-79
2021/06/16 10:29:26;;;;;;;9.02;2.08;;;;;;;17.15;61.02;101761.50;5082435;28;20025;-78
2021/06/16 10:31:52;;;;;;;8.98;1.80;;;;;;;17.09;60.82;101751.66;5073598;28;20040;-77
2021/06/16 10:34:17;;;;;;;5.05;1.60;;;;;;;17.23;60.80;101752.59;5080791;28;20028;-78
2021/06/16 10:37:02;;;;;;;5.43;1.70;;;;;;;17.16;60.13;101743.88;5062414;28;20016;-77
2021/06/16 10:39:28;;;;;;;4.40;1.45;;;;;;;17.34;59.92;101746.94;5063329;28;20020;-78
2021/06/16 10:41:55;;;;;;;5.32;1.95;;;;;;;17.33;59.38;101756.34;5071173;28;20127;-78
2021/06/16 10:44:24;;;;;;;5.95;1.60;;;;;;;17.45;58.89;101753.97;5073929;28;20032;-77
2021/06/16 10:46:54;;;;;;;4.05;1.75;;;;;;;17.46;58.52;101752.84;5073953;28;20021;-77
2021/06/16 10:49:50;;;;;;;4.88;2.03;;;;;;;17.42;58.11;101740.78;5073609;28;20043;-77
2021/06/16 10:52:16;;;;;;;4.20;1.70;;;;;;;17.50;58.01;101749.19;5087140;28;20020;-77
2021/06/16 10:55:01;;;;;;;6.60;1.70;;;;;;;17.57;57.56;101764.53;5073681;28;20402;-77
2021/06/16 10:57:29;;;;;;;4.95;1.70;;;;;;;17.67;56.87;101751.44;5072264;28;20045;-77
2021/06/16 11:00:09;;;;;;;5.65;1.77;;;;;;;17.86;56.39;101745.94;5078864;28;20020;-78
2021/06/16 11:02:41;;;;;;;7.07;1.80;;;;;;;17.93;56.37;101753.84;5072836;28;20097;-77
2021/06/16 11:05:40;;;;;;;5.13;1.70;;;;;;;17.93;56.17;101745.56;5070628;28;20039;-78
2021/06/16 11:08:07;;;;;;;5.95;2.28;;;;;;;17.83;55.54;101745.72;5067437;28;20470;-77
2021/06/16 11:10:55;;;;;;;3.78;1.90;;;;;;;17.88;55.57;101745.66;5073783;28;20131;-77
2021/06/16 11:13:41;;;;;;;5.70;2.03;;;;;;;17.91;55.01;101753.31;5067272;28;20060;-77
2021/06/16 11:16:41;;;;;;;5.18;2.38;;;;;;;18.11;54.59;101752.16;5073024;28;20056;-77
2021/06/16 11:19:36;;;;;;;8.23;4.03;;;;;;;18.17;54.08;101746.28;5075156;28;20029;-78
2021/06/16 11:22:04;;;;;;;7.82;2.08;;;;;;;18.24;53.44;101750.59;5050508;28;20113;-77
2021/06/16 11:25:04;;;;;;;6.22;2.65;;;;;;;18.18;53.29;101747.91;5072503;28;20492;-78
2021/06/16 11:27:55;;;;;;;4.30;2.22;;;;;;;18.28;53.52;101740.56;5077828;28;20077;-79